Terminal Aerodrome Forecast
Issued by NWS Oklahoma City, OK

Home | Current Version | Previous Version | Text Only | Print | Product List | Glossary On
Versions: 1 2 3 4 5 6 7 8 9 10 11 12 13 14 15 16 17 18 19
000
FTUS44 KOUN 191139
TAFOUN
TAF
KOUN 191139Z 1912/2012 18019G28KT P6SM VCSH OVC015
     FM191500 18021G28KT P6SM BKN015
     FM191900 18020G30KT P6SM SCT023 BKN200
     FM200200 18015G22KT P6SM VCSH BKN008 PROB30 2006/2012 3SM TSRA
      OVC008CB=

USA.gov is the U.S. government's official web portal to all federal, state and local government web resources and services.